createdAt,value
2022-08-11T00:00:13.868Z,18.60
2022-08-11T00:02:47.242Z,18.40
2022-08-11T00:05:20.359Z,18.50
2022-08-11T00:07:56.095Z,18.50
2022-08-11T00:10:28.399Z,18.50
2022-08-11T00:13:02.385Z,18.60
2022-08-11T00:15:48.801Z,18.70
2022-08-11T00:18:16.966Z,18.70
2022-08-11T00:20:45.369Z,18.60
2022-08-11T00:23:17.427Z,18.50
2022-08-11T00:25:48.259Z,18.40
2022-08-11T00:28:33.182Z,18.30
2022-08-11T00:31:06.899Z,18.20
2022-08-11T00:33:41.334Z,18.40
2022-08-11T00:36:15.700Z,18.40
2022-08-11T00:38:45.607Z,18.50
2022-08-11T00:41:34.217Z,18.40
2022-08-11T00:44:19.924Z,18.30
2022-08-11T00:46:55.248Z,18.20
2022-08-11T00:49:34.443Z,18.10
2022-08-11T00:52:38.408Z,18.00
2022-08-11T00:55:23.614Z,18.00
2022-08-11T00:58:14.966Z,17.90
2022-08-11T01:01:11.215Z,17.80
2022-08-11T01:04:11.758Z,17.80
2022-08-11T01:06:53.314Z,18.00
2022-08-11T01:09:37.679Z,17.80
2022-08-11T01:12:36.737Z,17.80
2022-08-11T01:15:57.054Z,17.80
2022-08-11T01:18:43.971Z,17.90
2022-08-11T01:21:35.833Z,17.80
2022-08-11T01:24:40.982Z,17.80
2022-08-11T01:27:19.349Z,17.70
2022-08-11T01:29:53.214Z,17.80
2022-08-11T01:32:21.050Z,17.50
2022-08-11T01:35:37.259Z,17.40
2022-08-11T01:38:33.039Z,17.40
2022-08-11T01:41:31.182Z,17.30
2022-08-11T01:44:12.728Z,17.40
2022-08-11T01:47:28.739Z,17.40
2022-08-11T01:50:10.759Z,17.30
2022-08-11T01:53:13.249Z,17.40
2022-08-11T01:55:54.950Z,17.20
2022-08-11T01:58:45.774Z,17.10
2022-08-11T02:01:38.146Z,17.30
2022-08-11T02:04:08.803Z,17.30
2022-08-11T02:06:42.877Z,17.20
2022-08-11T02:09:33.496Z,17.30
2022-08-11T02:12:34.291Z,17.40
2022-08-11T02:15:46.041Z,17.60
2022-08-11T02:18:16.994Z,17.80
2022-08-11T02:21:00.460Z,17.70
2022-08-11T02:24:04.303Z,17.90
2022-08-11T02:26:41.626Z,17.80
2022-08-11T02:29:16.863Z,17.90
2022-08-11T02:32:28.426Z,17.80
2022-08-11T02:35:14.808Z,17.70
2022-08-11T02:37:58.644Z,17.80
2022-08-11T02:40:50.995Z,17.80
2022-08-11T02:43:52.525Z,17.80
2022-08-11T02:46:32.180Z,17.80
2022-08-11T02:49:15.327Z,17.80
2022-08-11T02:52:14.933Z,17.60
2022-08-11T02:55:00.617Z,17.50
2022-08-11T02:57:35.287Z,17.70
2022-08-11T03:00:14.987Z,17.60
2022-08-11T03:02:54.439Z,17.60
2022-08-11T03:05:47.835Z,17.50
2022-08-11T03:08:17.638Z,17.50
2022-08-11T03:10:54.905Z,17.50
2022-08-11T03:13:34.482Z,17.60
2022-08-11T03:16:16.242Z,17.50
2022-08-11T03:18:54.506Z,17.50
2022-08-11T03:21:52.318Z,17.50
2022-08-11T03:24:37.110Z,17.60
2022-08-11T03:27:21.037Z,17.50
2022-08-11T03:30:05.535Z,17.50
2022-08-11T03:35:21.651Z,16.90
2022-08-11T03:38:00.182Z,17.00
2022-08-11T03:40:41.081Z,17.00
2022-08-11T03:43:27.916Z,17.20
2022-08-11T03:46:19.483Z,17.20
2022-08-11T03:49:23.621Z,17.50
2022-08-11T03:52:26.587Z,17.70
2022-08-11T03:54:59.311Z,17.80
2022-08-11T03:57:52.204Z,17.80
2022-08-11T04:00:41.413Z,18.00
2022-08-11T04:03:33.388Z,18.00
2022-08-11T04:06:21.442Z,17.90
2022-08-11T04:09:25.666Z,18.00
2022-08-11T04:12:36.674Z,17.90
2022-08-11T04:15:31.239Z,17.90
2022-08-11T04:18:03.840Z,17.70
2022-08-11T04:20:58.140Z,17.50
2022-08-11T04:24:35.833Z,17.80
2022-08-11T04:27:14.212Z,18.00
2022-08-11T04:30:02.109Z,17.90
2022-08-11T04:32:59.035Z,17.90
2022-08-11T04:35:40.028Z,17.90
2022-08-11T04:38:12.919Z,17.80
2022-08-11T04:41:04.383Z,17.70
2022-08-11T04:44:02.372Z,17.70
2022-08-11T04:46:59.495Z,17.80
2022-08-11T04:49:38.682Z,17.90
2022-08-11T04:52:43.751Z,17.80
2022-08-11T04:55:10.573Z,17.90
2022-08-11T04:57:50.119Z,17.90
2022-08-11T05:00:18.858Z,17.90
2022-08-11T05:03:03.766Z,18.00
2022-08-11T05:06:01.823Z,18.00
2022-08-11T05:08:44.034Z,18.10
2022-08-11T05:11:42.674Z,18.40
2022-08-11T05:14:12.588Z,18.50
2022-08-11T05:16:55.563Z,18.60
2022-08-11T05:19:22.614Z,18.70
2022-08-11T05:21:57.365Z,18.90
2022-08-11T05:24:35.971Z,19.10
2022-08-11T05:27:09.968Z,19.50
2022-08-11T05:29:56.917Z,19.90
2022-08-11T05:32:24.317Z,19.80
2022-08-11T05:34:55.765Z,19.80
2022-08-11T05:37:38.760Z,19.90
2022-08-11T05:40:07.742Z,20.20
2022-08-11T05:45:15.677Z,21.00
2022-08-11T05:47:43.500Z,20.90
2022-08-11T05:50:13.764Z,20.80
2022-08-11T05:52:46.972Z,20.60
2022-08-11T05:55:16.569Z,20.90
2022-08-11T05:57:51.094Z,20.90
2022-08-11T06:00:19.715Z,20.70
2022-08-11T06:02:51.972Z,20.80
2022-08-11T06:05:32.704Z,21.00
2022-08-11T06:08:09.659Z,20.90
2022-08-11T06:13:06.192Z,21.80
2022-08-11T06:15:34.750Z,21.60
2022-08-11T06:18:03.410Z,21.50
2022-08-11T06:20:31.798Z,21.30
2022-08-11T06:23:05.362Z,21.40
2022-08-11T06:25:35.508Z,21.70
2022-08-11T06:28:07.654Z,21.70
2022-08-11T06:30:36.340Z,21.70
2022-08-11T06:33:06.864Z,21.50
2022-08-11T06:36:04.725Z,21.50
2022-08-11T06:38:58.371Z,21.60
2022-08-11T06:41:38.033Z,21.50
2022-08-11T06:46:56.414Z,22.00
2022-08-11T06:49:32.639Z,22.40
2022-08-11T06:52:07.034Z,22.40
2022-08-11T06:54:54.039Z,22.70
2022-08-11T07:00:01.140Z,23.10
2022-08-11T07:02:36.973Z,23.40
2022-08-11T07:05:11.766Z,23.30
2022-08-11T07:08:34.641Z,23.10
2022-08-11T07:11:17.349Z,23.00
2022-08-11T07:13:45.966Z,22.60
2022-08-11T07:16:25.036Z,22.80
2022-08-11T07:19:07.846Z,22.30
2022-08-11T07:22:00.297Z,22.70
2022-08-11T07:24:34.410Z,23.00
2022-08-11T07:32:30.606Z,23.10
2022-08-11T07:35:09.278Z,23.30
2022-08-11T07:37:37.186Z,23.00
2022-08-11T07:40:04.869Z,23.00
2022-08-11T07:42:34.278Z,22.90
2022-08-11T07:45:02.648Z,22.90
2022-08-11T07:47:30.216Z,23.00
2022-08-11T07:49:57.185Z,22.90
2022-08-11T07:52:28.331Z,22.90
2022-08-11T07:55:08.596Z,22.90
2022-08-11T07:58:14.108Z,22.90
2022-08-11T08:00:29.910Z,22.90
2022-08-11T08:12:49.923Z,23.70
2022-08-11T08:15:18.068Z,23.70
2022-08-11T08:20:44.430Z,23.80
2022-08-11T08:25:41.072Z,24.50
2022-08-11T08:28:11.569Z,24.30
2022-08-11T08:30:39.005Z,23.90
2022-08-11T08:33:06.330Z,23.80
2022-08-11T08:35:35.377Z,23.70
2022-08-11T08:38:21.552Z,23.90
2022-08-11T08:40:55.955Z,24.20
2022-08-11T08:43:26.773Z,24.50
2022-08-11T08:45:57.165Z,24.60
2022-08-11T08:48:26.018Z,24.20
2022-08-11T08:50:57.697Z,24.70
2022-08-11T08:53:27.769Z,25.10
2022-08-11T08:55:55.927Z,25.00
2022-08-11T08:58:24.961Z,24.80
2022-08-11T09:00:56.855Z,24.70
2022-08-11T09:03:40.945Z,24.60
2022-08-11T09:06:13.575Z,24.90
2022-08-11T09:08:40.728Z,25.50
2022-08-11T09:11:13.285Z,25.10
2022-08-11T09:13:41.445Z,24.80
2022-08-11T09:16:10.210Z,25.00
2022-08-11T09:18:37.890Z,25.20
2022-08-11T09:21:05.706Z,25.10
2022-08-11T09:26:19.944Z,25.10
2022-08-11T09:28:47.717Z,25.20
2022-08-11T09:31:15.995Z,24.70
2022-08-11T09:33:44.464Z,25.00
2022-08-11T09:36:13.407Z,25.00
2022-08-11T09:38:44.057Z,25.10
2022-08-11T09:41:14.900Z,25.40
2022-08-11T09:43:46.199Z,25.00
2022-08-11T09:46:13.642Z,25.20
2022-08-11T09:48:44.223Z,25.50
2022-08-11T09:51:12.031Z,25.30
2022-08-11T09:53:42.716Z,24.80
2022-08-11T09:56:30.047Z,25.10
2022-08-11T09:58:58.061Z,24.90
2022-08-11T10:01:32.087Z,24.80
2022-08-11T10:04:05.692Z,25.00
2022-08-11T10:06:36.818Z,25.00
2022-08-11T10:09:06.179Z,24.40
2022-08-11T10:11:36.441Z,24.50
2022-08-11T10:14:33.462Z,24.50
2022-08-11T10:16:54.546Z,24.40
2022-08-11T10:19:22.308Z,24.30
2022-08-11T10:21:52.077Z,24.50
2022-08-11T10:24:19.292Z,24.50
2022-08-11T10:26:48.397Z,24.30
2022-08-11T10:29:16.668Z,24.20
2022-08-11T10:31:59.309Z,24.10
2022-08-11T10:34:30.181Z,24.10
2022-08-11T10:36:59.061Z,24.10
2022-08-11T10:39:27.373Z,24.20
2022-08-11T10:42:06.780Z,24.10
2022-08-11T10:44:42.074Z,24.20
2022-08-11T10:47:12.538Z,24.30
2022-08-11T10:49:40.631Z,23.90
2022-08-11T10:52:07.838Z,24.20
2022-08-11T10:54:36.191Z,24.50
2022-08-11T10:57:04.122Z,24.70
2022-08-11T10:59:34.890Z,25.30
2022-08-11T11:02:01.967Z,25.80
2022-08-11T11:04:53.355Z,25.30
2022-08-11T11:07:36.647Z,25.00
2022-08-11T11:10:11.299Z,25.10
2022-08-11T11:12:42.365Z,25.50
2022-08-11T11:15:10.329Z,25.50
2022-08-11T11:17:57.325Z,25.70
2022-08-11T11:20:36.078Z,25.80
2022-08-11T11:23:10.619Z,25.30
2022-08-11T11:25:49.270Z,25.10
2022-08-11T11:28:35.912Z,25.20
2022-08-11T11:31:30.272Z,25.50
2022-08-11T11:34:23.758Z,25.70
2022-08-11T11:36:54.420Z,25.50
2022-08-11T11:39:26.080Z,25.50
2022-08-11T11:42:04.597Z,25.20
2022-08-11T11:44:32.799Z,25.30
2022-08-11T11:47:00.951Z,25.10
2022-08-11T11:49:30.091Z,24.60
2022-08-11T11:51:59.329Z,25.10
2022-08-11T11:54:31.242Z,25.60
2022-08-11T11:56:59.872Z,25.70
2022-08-11T11:59:28.183Z,25.70
2022-08-11T12:01:56.958Z,25.70
2022-08-11T12:04:24.679Z,25.80
2022-08-11T12:06:52.023Z,25.50
2022-08-11T12:09:19.118Z,25.60
2022-08-11T12:11:50.621Z,25.80
2022-08-11T12:14:21.069Z,25.30
2022-08-11T12:16:48.987Z,25.40
2022-08-11T12:19:23.204Z,25.50
2022-08-11T12:21:51.547Z,25.30
2022-08-11T12:24:29.272Z,25.30
2022-08-11T12:27:16.028Z,25.20
2022-08-11T12:29:45.591Z,24.80
2022-08-11T12:32:12.953Z,24.80
2022-08-11T12:34:39.827Z,24.90
2022-08-11T12:37:07.633Z,25.00
2022-08-11T12:40:10.856Z,24.80
2022-08-11T12:42:26.671Z,24.90
2022-08-11T12:44:57.310Z,24.90
2022-08-11T12:47:25.200Z,25.00
2022-08-11T12:49:54.490Z,24.80
2022-08-11T12:52:27.359Z,24.80
2022-08-11T12:54:59.274Z,24.80
2022-08-11T12:57:45.585Z,25.00
2022-08-11T13:00:13.112Z,25.10
2022-08-11T13:02:44.445Z,24.80
2022-08-11T13:05:16.322Z,24.80
2022-08-11T13:07:50.630Z,24.70
2022-08-11T13:10:20.492Z,24.70
2022-08-11T13:12:47.442Z,24.80
2022-08-11T13:15:15.790Z,24.70
2022-08-11T13:17:44.517Z,24.70
2022-08-11T13:20:12.971Z,24.80
2022-08-11T13:22:42.385Z,24.80
2022-08-11T13:25:09.863Z,24.80
2022-08-11T13:27:44.232Z,24.90
2022-08-11T13:30:12.053Z,24.70
2022-08-11T13:32:41.779Z,24.60
2022-08-11T13:35:16.003Z,24.70
2022-08-11T13:38:19.007Z,24.80
2022-08-11T13:40:54.738Z,24.90
2022-08-11T13:43:23.107Z,24.70
2022-08-11T13:45:50.320Z,24.80
2022-08-11T13:48:17.523Z,24.70
2022-08-11T13:50:46.285Z,24.70
2022-08-11T13:53:17.408Z,24.80
2022-08-11T13:55:52.244Z,24.90
2022-08-11T13:58:40.467Z,24.80
2022-08-11T14:01:51.422Z,24.90
2022-08-11T14:04:30.412Z,24.70
2022-08-11T14:06:48.912Z,24.60
2022-08-11T14:09:22.961Z,24.70
2022-08-11T14:12:21.778Z,24.60
2022-08-11T14:14:38.155Z,24.80
2022-08-11T14:17:09.663Z,24.80
2022-08-11T14:19:41.633Z,24.80
2022-08-11T14:22:08.988Z,24.70
2022-08-11T14:24:39.467Z,24.80
2022-08-11T14:27:08.495Z,25.00
2022-08-11T14:29:55.690Z,24.80
2022-08-11T14:32:23.730Z,24.60
2022-08-11T14:34:53.919Z,24.70
2022-08-11T14:37:23.594Z,24.70
2022-08-11T14:39:52.463Z,24.70
2022-08-11T14:42:22.556Z,24.70
2022-08-11T14:45:01.957Z,24.30
2022-08-11T14:47:32.406Z,24.50
2022-08-11T14:50:10.898Z,24.80
2022-08-11T14:53:02.439Z,24.70
2022-08-11T14:55:32.465Z,24.50
2022-08-11T14:58:01.062Z,24.30
2022-08-11T15:00:28.784Z,24.30
2022-08-11T15:02:56.642Z,24.30
2022-08-11T15:05:25.123Z,24.10
2022-08-11T15:07:53.664Z,24.30
2022-08-11T15:10:21.879Z,24.10
2022-08-11T15:12:49.376Z,24.30
2022-08-11T15:15:17.867Z,24.30
2022-08-11T15:17:46.652Z,24.30
2022-08-11T15:20:18.262Z,24.20
2022-08-11T15:22:45.109Z,24.30
2022-08-11T15:25:12.466Z,24.20
2022-08-11T15:27:40.955Z,24.20
2022-08-11T15:30:08.484Z,24.30
2022-08-11T15:32:36.351Z,24.20
2022-08-11T15:35:04.089Z,24.10
2022-08-11T15:37:31.777Z,24.10
2022-08-11T15:39:58.638Z,24.10
2022-08-11T15:42:25.530Z,24.20
2022-08-11T15:45:04.883Z,24.20
2022-08-11T15:47:55.298Z,24.10
2022-08-11T15:50:32.974Z,24.00
2022-08-11T15:53:06.302Z,23.90
2022-08-11T15:55:35.691Z,24.00
2022-08-11T15:58:07.174Z,23.90
2022-08-11T16:00:36.906Z,23.90
2022-08-11T16:03:05.651Z,23.90
2022-08-11T16:05:45.975Z,23.80
2022-08-11T16:13:15.488Z,22.30
2022-08-11T16:15:49.416Z,22.10
2022-08-11T16:18:20.418Z,21.90
2022-08-11T16:20:50.277Z,21.70
2022-08-11T16:23:18.249Z,21.40
2022-08-11T16:27:02.606Z,21.30
2022-08-11T16:28:35.047Z,21.10
2022-08-11T16:31:03.114Z,21.00
2022-08-11T16:33:49.813Z,20.80
2022-08-11T16:36:19.561Z,21.10
2022-08-11T16:38:46.870Z,21.00
2022-08-11T16:41:17.101Z,21.00
2022-08-11T16:43:47.679Z,20.90
2022-08-11T16:46:17.721Z,21.00
2022-08-11T16:48:47.905Z,21.10
2022-08-11T16:51:15.127Z,21.00
2022-08-11T16:53:47.395Z,21.00
2022-08-11T16:56:43.367Z,21.00
2022-08-11T16:59:17.103Z,21.00
2022-08-11T17:01:52.747Z,20.90
2022-08-11T17:04:21.543Z,21.00
2022-08-11T17:06:50.312Z,21.00
2022-08-11T17:09:21.980Z,20.90
2022-08-11T17:11:56.570Z,21.00
2022-08-11T17:14:35.438Z,21.00
2022-08-11T17:17:06.088Z,21.00
2022-08-11T17:20:40.357Z,20.80
2022-08-11T17:22:23.996Z,20.90
2022-08-11T17:24:52.653Z,20.90
2022-08-11T17:27:21.792Z,20.80
2022-08-11T17:29:55.418Z,20.70
2022-08-11T17:32:56.950Z,20.80
2022-08-11T17:35:24.029Z,20.70
2022-08-11T17:37:52.279Z,20.70
2022-08-11T17:40:22.852Z,20.60
2022-08-11T17:42:52.453Z,20.70
2022-08-11T17:45:20.839Z,20.70
2022-08-11T17:47:49.255Z,20.70
2022-08-11T17:50:18.251Z,20.70
2022-08-11T17:52:46.431Z,20.60
2022-08-11T17:55:15.543Z,20.70
2022-08-11T17:57:47.548Z,20.50
2022-08-11T18:00:15.448Z,20.40
2022-08-11T18:02:48.284Z,20.30
2022-08-11T18:05:18.346Z,20.30
2022-08-11T18:07:46.434Z,20.40
2022-08-11T18:10:13.352Z,20.20
2022-08-11T18:12:40.901Z,20.30
2022-08-11T18:15:08.350Z,20.40
2022-08-11T18:17:36.915Z,20.40
2022-08-11T18:20:04.303Z,20.40
2022-08-11T18:22:37.293Z,20.40
2022-08-11T18:25:10.626Z,20.20
2022-08-11T18:27:41.061Z,20.30
2022-08-11T18:30:09.112Z,20.40
2022-08-11T18:32:49.749Z,20.20
2022-08-11T18:35:19.583Z,20.20
2022-08-11T18:37:48.969Z,20.30
2022-08-11T18:40:23.292Z,20.30
2022-08-11T18:42:53.216Z,20.30
2022-08-11T18:45:20.830Z,20.30
2022-08-11T18:47:51.049Z,20.20
2022-08-11T18:50:38.411Z,20.30
2022-08-11T18:53:06.907Z,20.20
2022-08-11T18:55:34.873Z,20.20
2022-08-11T18:58:07.236Z,20.10
2022-08-11T19:00:38.351Z,20.10
2022-08-11T19:03:06.911Z,20.40
2022-08-11T19:06:05.946Z,20.20
2022-08-11T19:08:27.876Z,20.40
2022-08-11T19:10:57.738Z,20.30
2022-08-11T19:13:25.974Z,20.30
2022-08-11T19:15:54.345Z,20.30
2022-08-11T19:18:23.151Z,20.20
2022-08-11T19:20:52.526Z,20.10
2022-08-11T19:23:36.455Z,20.10
2022-08-11T19:26:04.683Z,20.20
2022-08-11T19:28:33.620Z,20.10
2022-08-11T19:31:00.877Z,20.10
2022-08-11T19:34:02.824Z,20.00
2022-08-11T19:36:16.920Z,20.00
2022-08-11T19:38:44.852Z,20.00
2022-08-11T19:41:15.062Z,20.00
2022-08-11T19:43:46.601Z,19.90
2022-08-11T19:46:14.406Z,19.80
2022-08-11T19:48:42.303Z,19.90
2022-08-11T19:51:10.531Z,19.90
2022-08-11T19:53:38.016Z,19.90
2022-08-11T19:56:06.861Z,19.90
2022-08-11T19:58:37.693Z,20.00
2022-08-11T20:01:05.761Z,19.80
2022-08-11T20:03:32.784Z,19.80
2022-08-11T20:06:03.038Z,19.80
2022-08-11T20:08:31.195Z,19.70
2022-08-11T20:10:58.945Z,19.60
2022-08-11T20:13:27.492Z,19.50
2022-08-11T20:15:56.758Z,19.60
2022-08-11T20:18:25.293Z,19.50
2022-08-11T20:20:56.421Z,19.60
2022-08-11T20:23:25.297Z,19.60
2022-08-11T20:25:59.156Z,19.50
2022-08-11T20:28:33.431Z,19.50
2022-08-11T20:31:01.647Z,19.50
2022-08-11T20:33:28.921Z,19.50
2022-08-11T20:35:55.761Z,19.30
2022-08-11T20:38:24.275Z,19.30
2022-08-11T20:40:53.723Z,19.20
2022-08-11T20:44:06.286Z,19.10
2022-08-11T20:46:11.143Z,19.20
2022-08-11T20:48:40.243Z,19.10
2022-08-11T20:51:09.424Z,19.00
2022-08-11T20:53:45.805Z,19.00
2022-08-11T20:56:13.350Z,18.90
2022-08-11T20:59:13.762Z,19.00
2022-08-11T21:01:38.362Z,18.90
2022-08-11T21:04:05.964Z,18.70
2022-08-11T21:06:34.826Z,18.70
2022-08-11T21:09:05.737Z,18.70
2022-08-11T21:11:36.133Z,18.60
2022-08-11T21:14:07.927Z,18.50
2022-08-11T21:16:38.601Z,18.60
2022-08-11T21:19:16.294Z,18.50
2022-08-11T21:21:46.551Z,18.50
2022-08-11T21:24:20.275Z,18.30
2022-08-11T21:26:51.771Z,18.30
2022-08-11T21:29:20.214Z,18.40
2022-08-11T21:31:49.351Z,18.40
2022-08-11T21:34:19.169Z,18.50
2022-08-11T21:36:47.303Z,18.60
2022-08-11T21:39:19.425Z,18.50
2022-08-11T21:41:54.116Z,18.30
2022-08-11T21:44:22.345Z,18.30
2022-08-11T21:46:50.568Z,18.40
2022-08-11T21:49:20.590Z,18.00
2022-08-11T21:51:47.507Z,18.40
2022-08-11T21:54:15.941Z,18.50
2022-08-11T21:56:44.051Z,18.40
2022-08-11T21:59:12.579Z,18.30
2022-08-11T22:01:40.266Z,18.30
2022-08-11T22:04:08.472Z,18.20
2022-08-11T22:06:36.345Z,18.20
2022-08-11T22:09:03.997Z,18.10
2022-08-11T22:11:32.835Z,18.10
2022-08-11T22:14:08.239Z,18.10
2022-08-11T22:16:36.111Z,17.90
2022-08-11T22:19:05.754Z,18.00
2022-08-11T22:21:56.535Z,18.10
2022-08-11T22:24:30.074Z,18.00
2022-08-11T22:26:57.376Z,17.90
2022-08-11T22:29:41.320Z,17.70
2022-08-11T22:32:12.545Z,17.80
2022-08-11T22:34:40.760Z,17.70
2022-08-11T22:37:27.332Z,17.70
2022-08-11T22:40:01.503Z,17.80
2022-08-11T22:42:34.129Z,17.70
2022-08-11T22:45:01.869Z,17.50
2022-08-11T22:47:40.461Z,17.40
2022-08-11T22:50:10.197Z,17.40
2022-08-11T22:52:38.026Z,17.40
2022-08-11T22:55:06.529Z,17.50
2022-08-11T22:57:39.043Z,17.60
2022-08-11T23:00:06.919Z,17.60
2022-08-11T23:05:02.249Z,17.50
2022-08-11T23:07:50.552Z,17.60
2022-08-11T23:10:18.282Z,17.40
2022-08-11T23:12:47.525Z,17.50
2022-08-11T23:15:14.955Z,17.50
2022-08-11T23:17:42.512Z,17.50
2022-08-11T23:20:27.271Z,17.50
2022-08-11T23:22:58.771Z,17.50
2022-08-11T23:25:27.166Z,17.60
2022-08-11T23:27:55.413Z,17.70
2022-08-11T23:30:24.071Z,17.60
2022-08-11T23:33:02.881Z,17.60
2022-08-11T23:35:38.149Z,17.70
2022-08-11T23:38:07.569Z,17.70
2022-08-11T23:40:34.439Z,17.70
2022-08-11T23:43:01.573Z,17.60
2022-08-11T23:45:28.380Z,17.60
2022-08-11T23:47:56.436Z,17.50
2022-08-11T23:50:24.169Z,17.50
2022-08-11T23:52:52.231Z,17.60
2022-08-11T23:55:20.146Z,17.60
2022-08-11T23:57:48.788Z,17.50
